createdAt,value
2024-02-08T00:03:15.782Z,0.00
2024-02-08T00:08:15.754Z,0.00
2024-02-08T00:13:15.631Z,0.00
2024-02-08T00:18:15.662Z,0.00
2024-02-08T00:23:15.686Z,0.00
2024-02-08T00:28:15.430Z,0.00
2024-02-08T00:33:15.393Z,0.00
2024-02-08T00:38:15.478Z,0.00
2024-02-08T00:43:15.246Z,0.00
2024-02-08T00:48:15.258Z,0.00
2024-02-08T00:53:15.308Z,0.00
2024-02-08T00:58:15.022Z,0.00
2024-02-08T01:03:15.061Z,0.00
2024-02-08T01:08:14.886Z,0.00
2024-02-08T01:13:14.820Z,0.00
2024-02-08T01:18:14.949Z,0.00
2024-02-08T01:23:14.757Z,0.00
2024-02-08T01:28:14.631Z,0.00
2024-02-08T01:33:14.633Z,0.00
2024-02-08T01:38:14.528Z,0.00
2024-02-08T01:43:14.425Z,0.00
2024-02-08T01:48:14.443Z,0.00
2024-02-08T01:53:14.329Z,0.00
2024-02-08T01:58:14.216Z,0.00
2024-02-08T02:03:14.512Z,0.00
2024-02-08T02:08:14.106Z,0.00
2024-02-08T02:13:14.039Z,0.00
2024-02-08T02:18:14.078Z,0.00
2024-02-08T02:23:13.917Z,0.00
2024-02-08T02:28:13.862Z,0.00
2024-02-08T02:33:13.923Z,0.00
2024-02-08T02:38:13.961Z,0.00
2024-02-08T02:43:13.742Z,0.00
2024-02-08T02:48:13.886Z,0.00
2024-02-08T02:53:13.618Z,0.00
2024-02-08T02:58:13.716Z,0.00
2024-02-08T03:03:14.214Z,0.00
2024-02-08T03:08:13.500Z,0.00
2024-02-08T03:13:13.303Z,0.00
2024-02-08T03:18:13.281Z,0.00
2024-02-08T03:23:13.216Z,0.00
2024-02-08T03:28:13.365Z,0.00
2024-02-08T03:33:13.192Z,0.00
2024-02-08T03:38:13.079Z,0.00
2024-02-08T03:43:12.902Z,0.00
2024-02-08T03:48:13.046Z,0.00
2024-02-08T03:53:12.874Z,0.00
2024-02-08T03:58:12.698Z,0.00
2024-02-08T04:03:12.680Z,0.00
2024-02-08T04:08:12.610Z,0.00
2024-02-08T04:13:12.517Z,0.00
2024-02-08T04:18:12.529Z,0.00
2024-02-08T04:23:12.469Z,0.00
2024-02-08T04:28:12.345Z,0.00
2024-02-08T04:33:12.357Z,0.00
2024-02-08T04:38:12.283Z,0.00
2024-02-08T04:43:12.126Z,0.00
2024-02-08T04:48:12.136Z,0.00
2024-02-08T04:53:12.042Z,0.00
2024-02-08T04:58:27.928Z,0.00
2024-02-08T05:03:12.840Z,0.00
2024-02-08T05:08:11.812Z,0.00
2024-02-08T05:13:11.773Z,0.00
2024-02-08T05:18:11.732Z,0.00
2024-02-08T05:23:11.607Z,0.00
2024-02-08T05:28:11.654Z,0.00
2024-02-08T05:33:12.773Z,0.00
2024-02-08T05:38:11.444Z,0.00
2024-02-08T05:43:11.433Z,0.00
2024-02-08T05:48:11.528Z,0.00
2024-02-08T05:53:11.222Z,0.00
2024-02-08T05:58:11.208Z,0.00
2024-02-08T06:03:11.092Z,0.00
2024-02-08T06:08:11.055Z,4.00
2024-02-08T06:13:10.955Z,4.00
2024-02-08T06:18:10.928Z,8.00
2024-02-08T06:23:10.819Z,16.00
2024-02-08T06:28:10.853Z,28.00
2024-02-08T06:33:10.792Z,56.00
2024-02-08T06:38:10.696Z,88.00
2024-02-08T06:43:10.655Z,132.00
2024-02-08T06:48:10.587Z,164.00
2024-02-08T06:53:10.444Z,188.00
2024-02-08T06:58:10.460Z,220.00
2024-02-08T07:03:10.352Z,328.00
2024-02-08T07:08:10.412Z,440.00
2024-02-08T07:13:10.258Z,496.00
2024-02-08T07:18:13.407Z,548.00
2024-02-08T07:23:10.082Z,580.00
2024-02-08T07:28:10.028Z,720.00
2024-02-08T07:33:10.038Z,820.00
2024-02-08T07:38:09.890Z,1224.00
2024-02-08T07:43:09.832Z,1216.00
2024-02-08T07:48:10.120Z,1192.00
2024-02-08T07:53:09.650Z,1368.00
2024-02-08T07:58:10.120Z,1768.00
2024-02-08T08:03:09.531Z,2272.00
2024-02-08T08:08:09.482Z,2392.00
2024-02-08T08:13:09.442Z,2780.00
2024-02-08T08:18:09.379Z,2960.00
2024-02-08T08:23:09.856Z,2352.00
2024-02-08T08:28:09.206Z,2820.00
2024-02-08T08:33:09.299Z,3132.00
2024-02-08T08:38:09.237Z,3352.00
2024-02-08T08:43:09.048Z,3320.00
2024-02-08T08:48:09.133Z,3580.00
2024-02-08T08:53:08.954Z,3432.00
2024-02-08T08:58:08.886Z,3104.00
2024-02-08T09:03:08.787Z,2984.00
2024-02-08T09:08:08.746Z,2980.00
2024-02-08T09:13:08.704Z,3092.00
2024-02-08T09:18:08.631Z,3424.00
2024-02-08T09:23:08.472Z,3804.00
2024-02-08T09:28:08.460Z,3884.00
2024-02-08T09:33:08.387Z,3744.00
2024-02-08T09:38:08.280Z,3728.00
2024-02-08T09:43:08.335Z,3476.00
2024-02-08T09:48:08.499Z,3276.00
2024-02-08T09:53:08.159Z,3624.00
2024-02-08T09:58:08.064Z,3320.00
2024-02-08T10:03:08.122Z,3572.00
2024-02-08T10:08:07.912Z,3500.00
2024-02-08T10:13:07.869Z,3844.00
2024-02-08T10:18:07.814Z,4032.00
2024-02-08T10:23:07.728Z,4204.00
2024-02-08T10:28:07.703Z,4128.00
2024-02-08T10:33:07.662Z,4164.00
2024-02-08T10:38:07.484Z,3720.00
2024-02-08T10:43:07.499Z,3812.00
2024-02-08T10:48:07.389Z,4424.00
2024-02-08T10:53:07.297Z,4628.00
2024-02-08T10:58:07.315Z,5136.00
2024-02-08T11:03:07.204Z,5892.00
2024-02-08T11:08:07.137Z,6580.00
2024-02-08T11:13:07.073Z,6584.00
2024-02-08T11:18:09.083Z,6128.00
2024-02-08T11:23:06.910Z,5632.00
2024-02-08T11:28:14.317Z,4184.00
2024-02-08T11:33:07.793Z,3676.00
2024-02-08T11:38:06.687Z,3836.00
2024-02-08T11:43:08.918Z,4000.00
2024-02-08T11:48:06.697Z,4428.00
2024-02-08T11:53:06.519Z,5056.00
2024-02-08T11:58:06.531Z,5012.00
2024-02-08T12:03:06.399Z,4720.00
2024-02-08T12:08:06.355Z,5340.00
2024-02-08T12:13:06.292Z,5708.00
2024-02-08T12:18:06.275Z,5488.00
2024-02-08T12:23:06.126Z,4008.00
2024-02-08T12:28:06.461Z,4216.00
2024-02-08T12:33:06.105Z,4624.00
2024-02-08T12:38:05.957Z,4168.00
2024-02-08T12:43:05.893Z,4016.00
2024-02-08T12:48:06.075Z,3360.00
2024-02-08T12:53:05.728Z,4740.00
2024-02-08T12:58:06.398Z,4608.00
2024-02-08T13:03:05.680Z,3768.00
2024-02-08T13:08:05.651Z,3876.00
2024-02-08T13:13:05.705Z,2872.00
2024-02-08T13:18:05.547Z,2344.00
2024-02-08T13:23:05.366Z,1996.00
2024-02-08T13:28:05.336Z,1680.00
2024-02-08T13:33:05.256Z,2088.00
2024-02-08T13:38:05.324Z,1828.00
2024-02-08T13:43:05.275Z,1392.00
2024-02-08T13:48:05.368Z,876.00
2024-02-08T13:53:05.776Z,984.00
2024-02-08T13:58:04.901Z,1040.00
2024-02-08T14:03:04.848Z,712.00
2024-02-08T14:08:04.757Z,824.00
2024-02-08T14:13:04.742Z,972.00
2024-02-08T14:18:04.718Z,1144.00
2024-02-08T14:23:04.548Z,1008.00
2024-02-08T14:28:04.525Z,952.00
2024-02-08T14:33:04.953Z,1116.00
2024-02-08T14:38:04.371Z,1088.00
2024-02-08T14:43:04.350Z,832.00
2024-02-08T14:48:04.320Z,524.00
2024-02-08T14:53:04.496Z,612.00
2024-02-08T14:58:04.187Z,640.00
2024-02-08T15:03:04.318Z,584.00
2024-02-08T15:08:03.974Z,652.00
2024-02-08T15:13:04.016Z,572.00
2024-02-08T15:18:03.872Z,508.00
2024-02-08T15:23:03.754Z,416.00
2024-02-08T15:28:03.846Z,340.00
2024-02-08T15:33:03.694Z,244.00
2024-02-08T15:38:03.663Z,184.00
2024-02-08T15:43:03.519Z,132.00
2024-02-08T15:48:04.246Z,108.00
2024-02-08T15:53:03.401Z,68.00
2024-02-08T15:58:03.347Z,48.00
2024-02-08T16:03:03.725Z,28.00
2024-02-08T16:08:03.229Z,20.00
2024-02-08T16:13:03.152Z,12.00
2024-02-08T16:18:03.133Z,8.00
2024-02-08T16:23:02.989Z,4.00
2024-02-08T16:28:02.935Z,0.00
2024-02-08T16:33:02.904Z,0.00
2024-02-08T16:38:02.776Z,0.00
2024-02-08T16:43:02.788Z,0.00
2024-02-08T16:48:02.694Z,0.00
2024-02-08T16:53:02.572Z,0.00
2024-02-08T16:58:02.909Z,0.00
2024-02-08T17:03:02.445Z,0.00
2024-02-08T17:08:02.387Z,0.00
2024-02-08T17:13:02.361Z,0.00
2024-02-08T17:18:02.327Z,0.00
2024-02-08T17:23:02.189Z,0.00
2024-02-08T17:28:02.324Z,0.00
2024-02-08T17:33:02.284Z,0.00
2024-02-08T17:38:02.088Z,0.00
2024-02-08T17:43:02.034Z,0.00
2024-02-08T17:48:02.312Z,0.00
2024-02-08T17:53:01.800Z,0.00
2024-02-08T17:58:01.771Z,0.00
2024-02-08T18:03:01.679Z,0.00
2024-02-08T18:08:01.826Z,0.00
2024-02-08T18:13:02.970Z,0.00
2024-02-08T18:18:01.523Z,0.00
2024-02-08T18:23:01.437Z,0.00
2024-02-08T18:28:01.714Z,0.00
2024-02-08T18:33:01.327Z,0.00
2024-02-08T18:38:01.249Z,0.00
2024-02-08T18:43:01.170Z,0.00
2024-02-08T18:48:01.158Z,0.00
2024-02-08T18:53:01.058Z,0.00
2024-02-08T18:58:01.150Z,0.00
2024-02-08T19:03:00.940Z,0.00
2024-02-08T19:08:00.853Z,0.00
2024-02-08T19:13:01.004Z,0.00
2024-02-08T19:18:06.220Z,0.00
2024-02-08T19:23:01.644Z,0.00
2024-02-08T19:28:00.688Z,0.00
2024-02-08T19:33:00.630Z,0.00
2024-02-08T19:38:00.463Z,0.00
2024-02-08T19:43:00.458Z,0.00
2024-02-08T19:48:00.352Z,0.00
2024-02-08T19:53:00.278Z,0.00
2024-02-08T19:58:00.539Z,0.00
2024-02-08T20:03:00.132Z,0.00
2024-02-08T20:08:00.109Z,0.00
2024-02-08T20:13:00.015Z,0.00
2024-02-08T20:18:00.176Z,0.00
2024-02-08T20:23:00.018Z,0.00
2024-02-08T20:28:00.289Z,0.00
2024-02-08T20:32:59.829Z,0.00
2024-02-08T20:37:59.690Z,0.00
2024-02-08T20:42:59.765Z,0.00
2024-02-08T20:47:59.571Z,0.00
2024-02-08T20:52:59.484Z,0.00
2024-02-08T20:57:59.428Z,0.00
2024-02-08T21:03:00.238Z,0.00
2024-02-08T21:07:59.309Z,0.00
2024-02-08T21:12:59.380Z,0.00
2024-02-08T21:17:59.236Z,0.00
2024-02-08T21:22:59.192Z,0.00
2024-02-08T21:27:59.084Z,0.00
2024-02-08T21:32:59.055Z,0.00
2024-02-08T21:37:58.909Z,0.00
2024-02-08T21:42:58.879Z,0.00
2024-02-08T21:47:58.818Z,0.00
2024-02-08T21:52:58.776Z,0.00
2024-02-08T21:57:58.694Z,0.00
2024-02-08T22:02:58.807Z,0.00
2024-02-08T22:07:58.774Z,0.00
2024-02-08T22:12:58.631Z,0.00
2024-02-08T22:17:58.509Z,0.00
2024-02-08T22:22:58.506Z,0.00
2024-02-08T22:27:58.467Z,0.00
2024-02-08T22:32:58.338Z,0.00
2024-02-08T22:37:58.205Z,0.00
2024-02-08T22:42:58.217Z,0.00
2024-02-08T22:47:58.145Z,0.00
2024-02-08T22:52:58.044Z,0.00
2024-02-08T22:57:58.020Z,0.00
2024-02-08T23:02:57.881Z,0.00
2024-02-08T23:07:57.823Z,0.00
2024-02-08T23:12:57.827Z,0.00
2024-02-08T23:17:57.714Z,0.00
2024-02-08T23:22:57.648Z,0.00
2024-02-08T23:27:57.560Z,0.00
2024-02-08T23:32:57.537Z,0.00
2024-02-08T23:37:57.426Z,0.00
2024-02-08T23:42:57.383Z,0.00
2024-02-08T23:47:57.352Z,0.00
2024-02-08T23:52:57.259Z,0.00
2024-02-08T23:57:57.191Z,0.00
